sensor_id;sensor_type;location;lat;lon;timestamp;P1;durP1;ratioP1;P2;durP2;ratioP2
59028;SDS011;45919;51.420;5.454;2022-11-13T00:00:36;36.10;;;26.60;;
59028;SDS011;45919;51.420;5.454;2022-11-13T00:01:38;42.60;;;29.27;;
59028;SDS011;45919;51.420;5.454;2022-11-13T00:02:39;42.35;;;29.98;;
59028;SDS011;45919;51.420;5.454;2022-11-13T00:03:41;39.63;;;29.33;;
59028;SDS011;45919;51.420;5.454;2022-11-13T00:04:43;44.00;;;32.33;;
59028;SDS011;45919;51.420;5.454;2022-11-13T00:05:45;47.55;;;32.28;;
59028;SDS011;45919;51.420;5.454;2022-11-13T00:06:46;46.55;;;33.85;;
59028;SDS011;45919;51.420;5.454;2022-11-13T00:07:48;40.55;;;31.23;;
59028;SDS011;45919;51.420;5.454;2022-11-13T00:08:52;40.05;;;29.02;;
59028;SDS011;45919;51.420;5.454;2022-11-13T00:09:54;43.47;;;30.23;;
59028;SDS011;45919;51.420;5.454;2022-11-13T00:11:00;44.30;;;31.80;;
59028;SDS011;45919;51.420;5.454;2022-11-13T00:12:05;41.33;;;30.33;;
59028;SDS011;45919;51.420;5.454;2022-11-13T00:13:07;41.80;;;28.25;;
59028;SDS011;45919;51.420;5.454;2022-11-13T00:14:09;38.92;;;27.25;;
59028;SDS011;45919;51.420;5.454;2022-11-13T00:15:10;40.83;;;28.92;;
59028;SDS011;45919;51.420;5.454;2022-11-13T00:16:13;46.03;;;31.60;;
59028;SDS011;45919;51.420;5.454;2022-11-13T00:17:16;42.72;;;32.88;;
59028;SDS011;45919;51.420;5.454;2022-11-13T00:18:18;54.28;;;38.08;;
59028;SDS011;45919;51.420;5.454;2022-11-13T00:19:19;52.60;;;37.83;;
59028;SDS011;45919;51.420;5.454;2022-11-13T00:20:21;55.58;;;39.47;;
59028;SDS011;45919;51.420;5.454;2022-11-13T00:21:23;60.00;;;41.42;;
59028;SDS011;45919;51.420;5.454;2022-11-13T00:22:27;51.08;;;36.55;;
59028;SDS011;45919;51.420;5.454;2022-11-13T00:23:30;52.90;;;36.60;;
59028;SDS011;45919;51.420;5.454;2022-11-13T00:24:34;50.63;;;35.63;;
59028;SDS011;45919;51.420;5.454;2022-11-13T00:25:36;48.53;;;34.00;;
59028;SDS011;45919;51.420;5.454;2022-11-13T00:26:37;48.80;;;33.20;;
59028;SDS011;45919;51.420;5.454;2022-11-13T00:27:39;47.38;;;32.50;;
59028;SDS011;45919;51.420;5.454;2022-11-13T00:28:41;42.42;;;30.58;;
59028;SDS011;45919;51.420;5.454;2022-11-13T00:29:43;34.88;;;26.10;;
59028;SDS011;45919;51.420;5.454;2022-11-13T00:30:45;32.92;;;25.25;;
59028;SDS011;45919;51.420;5.454;2022-11-13T00:31:46;33.22;;;25.65;;
59028;SDS011;45919;51.420;5.454;2022-11-13T00:32:48;37.08;;;26.48;;
59028;SDS011;45919;51.420;5.454;2022-11-13T00:33:50;35.83;;;25.63;;
59028;SDS011;45919;51.420;5.454;2022-11-13T00:35:12;35.42;;;24.77;;
59028;SDS011;45919;51.420;5.454;2022-11-13T00:36:14;34.83;;;24.52;;
59028;SDS011;45919;51.420;5.454;2022-11-13T00:37:18;33.03;;;24.45;;
59028;SDS011;45919;51.420;5.454;2022-11-13T00:38:20;33.47;;;24.35;;
59028;SDS011;45919;51.420;5.454;2022-11-13T00:39:21;35.97;;;25.98;;
59028;SDS011;45919;51.420;5.454;2022-11-13T00:40:23;36.03;;;24.73;;
59028;SDS011;45919;51.420;5.454;2022-11-13T00:41:25;31.27;;;23.65;;
59028;SDS011;45919;51.420;5.454;2022-11-13T00:42:26;34.83;;;23.45;;
59028;SDS011;45919;51.420;5.454;2022-11-13T00:43:28;34.05;;;25.45;;
59028;SDS011;45919;51.420;5.454;2022-11-13T00:44:29;38.33;;;25.73;;
59028;SDS011;45919;51.420;5.454;2022-11-13T00:45:31;31.48;;;23.45;;
59028;SDS011;45919;51.420;5.454;2022-11-13T00:46:33;32.47;;;23.80;;
59028;SDS011;45919;51.420;5.454;2022-11-13T00:47:35;34.60;;;23.73;;
59028;SDS011;45919;51.420;5.454;2022-11-13T00:48:36;35.13;;;24.55;;
59028;SDS011;45919;51.420;5.454;2022-11-13T00:49:38;35.53;;;23.33;;
59028;SDS011;45919;51.420;5.454;2022-11-13T00:50:40;30.75;;;23.88;;
59028;SDS011;45919;51.420;5.454;2022-11-13T00:51:41;31.05;;;22.90;;
59028;SDS011;45919;51.420;5.454;2022-11-13T00:52:43;31.85;;;23.02;;
59028;SDS011;45919;51.420;5.454;2022-11-13T00:53:44;32.17;;;23.45;;
59028;SDS011;45919;51.420;5.454;2022-11-13T00:54:46;31.85;;;23.08;;
59028;SDS011;45919;51.420;5.454;2022-11-13T00:55:48;30.45;;;22.05;;
59028;SDS011;45919;51.420;5.454;2022-11-13T00:56:50;32.60;;;22.35;;
59028;SDS011;45919;51.420;5.454;2022-11-13T00:57:51;33.13;;;23.10;;
59028;SDS011;45919;51.420;5.454;2022-11-13T00:58:53;28.63;;;21.95;;
59028;SDS011;45919;51.420;5.454;2022-11-13T00:59:54;34.97;;;23.75;;
59028;SDS011;45919;51.420;5.454;2022-11-13T01:01:02;36.50;;;23.83;;
59028;SDS011;45919;51.420;5.454;2022-11-13T01:02:06;34.05;;;23.60;;
59028;SDS011;45919;51.420;5.454;2022-11-13T01:03:08;33.38;;;23.42;;
59028;SDS011;45919;51.420;5.454;2022-11-13T01:04:10;27.27;;;21.25;;
59028;SDS011;45919;51.420;5.454;2022-11-13T01:05:11;32.13;;;22.77;;
59028;SDS011;45919;51.420;5.454;2022-11-13T01:06:20;30.70;;;22.20;;
59028;SDS011;45919;51.420;5.454;2022-11-13T01:07:24;33.33;;;21.85;;
59028;SDS011;45919;51.420;5.454;2022-11-13T01:08:26;29.63;;;20.85;;
59028;SDS011;45919;51.420;5.454;2022-11-13T01:09:28;31.92;;;21.95;;
59028;SDS011;45919;51.420;5.454;2022-11-13T01:10:30;34.30;;;21.17;;
59028;SDS011;45919;51.420;5.454;2022-11-13T01:11:32;33.03;;;22.25;;
59028;SDS011;45919;51.420;5.454;2022-11-13T01:12:33;29.75;;;22.23;;
59028;SDS011;45919;51.420;5.454;2022-11-13T01:13:35;29.08;;;21.17;;
59028;SDS011;45919;51.420;5.454;2022-11-13T01:14:37;33.47;;;21.83;;
59028;SDS011;45919;51.420;5.454;2022-11-13T01:15:39;31.27;;;21.35;;
59028;SDS011;45919;51.420;5.454;2022-11-13T01:16:41;32.20;;;21.50;;
59028;SDS011;45919;51.420;5.454;2022-11-13T01:17:43;30.60;;;22.33;;
59028;SDS011;45919;51.420;5.454;2022-11-13T01:18:45;28.42;;;20.60;;
59028;SDS011;45919;51.420;5.454;2022-11-13T01:19:47;30.83;;;21.05;;
59028;SDS011;45919;51.420;5.454;2022-11-13T01:20:49;31.45;;;21.60;;
59028;SDS011;45919;51.420;5.454;2022-11-13T01:21:50;29.60;;;21.17;;
59028;SDS011;45919;51.420;5.454;2022-11-13T01:22:52;27.30;;;21.48;;
59028;SDS011;45919;51.420;5.454;2022-11-13T01:23:53;30.65;;;21.02;;
59028;SDS011;45919;51.420;5.454;2022-11-13T01:24:56;29.05;;;21.02;;
59028;SDS011;45919;51.420;5.454;2022-11-13T01:26:12;34.20;;;21.90;;
59028;SDS011;45919;51.420;5.454;2022-11-13T01:27:14;26.52;;;19.70;;
59028;SDS011;45919;51.420;5.454;2022-11-13T01:28:16;28.25;;;21.02;;
59028;SDS011;45919;51.420;5.454;2022-11-13T01:29:17;30.33;;;20.85;;
59028;SDS011;45919;51.420;5.454;2022-11-13T01:30:19;30.58;;;21.35;;
59028;SDS011;45919;51.420;5.454;2022-11-13T01:31:21;28.60;;;20.60;;
59028;SDS011;45919;51.420;5.454;2022-11-13T01:32:25;30.65;;;20.63;;
59028;SDS011;45919;51.420;5.454;2022-11-13T01:33:27;34.17;;;21.48;;
59028;SDS011;45919;51.420;5.454;2022-11-13T01:34:29;30.20;;;20.85;;
59028;SDS011;45919;51.420;5.454;2022-11-13T01:35:30;28.00;;;19.67;;
59028;SDS011;45919;51.420;5.454;2022-11-13T01:36:32;30.83;;;20.85;;
59028;SDS011;45919;51.420;5.454;2022-11-13T01:37:33;27.80;;;21.77;;
59028;SDS011;45919;51.420;5.454;2022-11-13T01:38:36;29.45;;;21.45;;
59028;SDS011;45919;51.420;5.454;2022-11-13T01:39:38;29.00;;;20.42;;
59028;SDS011;45919;51.420;5.454;2022-11-13T01:40:45;30.33;;;21.23;;
59028;SDS011;45919;51.420;5.454;2022-11-13T01:41:48;27.02;;;20.90;;
59028;SDS011;45919;51.420;5.454;2022-11-13T01:42:49;27.40;;;20.67;;
59028;SDS011;45919;51.420;5.454;2022-11-13T01:43:52;27.95;;;19.75;;
59028;SDS011;45919;51.420;5.454;2022-11-13T01:44:55;30.40;;;21.05;;
59028;SDS011;45919;51.420;5.454;2022-11-13T01:46:08;30.80;;;20.90;;
59028;SDS011;45919;51.420;5.454;2022-11-13T01:47:20;28.75;;;21.20;;
59028;SDS011;45919;51.420;5.454;2022-11-13T01:48:24;26.85;;;20.15;;
59028;SDS011;45919;51.420;5.454;2022-11-13T01:49:34;27.52;;;21.15;;
59028;SDS011;45919;51.420;5.454;2022-11-13T01:50:38;30.85;;;20.88;;
59028;SDS011;45919;51.420;5.454;2022-11-13T01:51:40;32.08;;;21.23;;
59028;SDS011;45919;51.420;5.454;2022-11-13T01:52:45;29.70;;;20.65;;
59028;SDS011;45919;51.420;5.454;2022-11-13T01:53:47;30.35;;;21.52;;
59028;SDS011;45919;51.420;5.454;2022-11-13T01:54:50;30.60;;;21.05;;
59028;SDS011;45919;51.420;5.454;2022-11-13T01:55:56;30.40;;;20.67;;
59028;SDS011;45919;51.420;5.454;2022-11-13T01:56:58;29.38;;;21.45;;
59028;SDS011;45919;51.420;5.454;2022-11-13T01:58:01;28.40;;;20.15;;
59028;SDS011;45919;51.420;5.454;2022-11-13T01:59:11;30.10;;;20.60;;
59028;SDS011;45919;51.420;5.454;2022-11-13T02:00:15;29.27;;;21.03;;
59028;SDS011;45919;51.420;5.454;2022-11-13T02:01:16;30.60;;;21.25;;
59028;SDS011;45919;51.420;5.454;2022-11-13T02:02:18;30.10;;;20.55;;
59028;SDS011;45919;51.420;5.454;2022-11-13T02:03:20;27.92;;;21.05;;
59028;SDS011;45919;51.420;5.454;2022-11-13T02:04:21;32.55;;;21.67;;
59028;SDS011;45919;51.420;5.454;2022-11-13T02:05:23;30.75;;;21.63;;
59028;SDS011;45919;51.420;5.454;2022-11-13T02:06:26;28.70;;;20.98;;
59028;SDS011;45919;51.420;5.454;2022-11-13T02:07:30;27.95;;;19.90;;
59028;SDS011;45919;51.420;5.454;2022-11-13T02:08:32;29.77;;;20.35;;
59028;SDS011;45919;51.420;5.454;2022-11-13T02:09:35;31.77;;;20.38;;
59028;SDS011;45919;51.420;5.454;2022-11-13T02:10:40;26.80;;;20.05;;
59028;SDS011;45919;51.420;5.454;2022-11-13T02:11:42;27.02;;;19.77;;
59028;SDS011;45919;51.420;5.454;2022-11-13T02:12:49;30.10;;;20.17;;
59028;SDS011;45919;51.420;5.454;2022-11-13T02:13:52;28.83;;;19.13;;
59028;SDS011;45919;51.420;5.454;2022-11-13T02:14:53;28.55;;;19.65;;
59028;SDS011;45919;51.420;5.454;2022-11-13T02:15:57;29.85;;;20.00;;
59028;SDS011;45919;51.420;5.454;2022-11-13T02:17:01;25.65;;;19.25;;
59028;SDS011;45919;51.420;5.454;2022-11-13T02:18:06;29.48;;;19.02;;
59028;SDS011;45919;51.420;5.454;2022-11-13T02:19:13;26.77;;;19.35;;
59028;SDS011;45919;51.420;5.454;2022-11-13T02:20:33;30.83;;;19.45;;
59028;SDS011;45919;51.420;5.454;2022-11-13T02:21:42;26.58;;;18.60;;
59028;SDS011;45919;51.420;5.454;2022-11-13T02:25:33;26.10;;;18.30;;
59028;SDS011;45919;51.420;5.454;2022-11-13T02:26:35;27.33;;;18.10;;
59028;SDS011;45919;51.420;5.454;2022-11-13T02:27:45;26.63;;;18.23;;
59028;SDS011;45919;51.420;5.454;2022-11-13T02:28:48;26.33;;;18.90;;
59028;SDS011;45919;51.420;5.454;2022-11-13T02:29:49;27.85;;;19.05;;
59028;SDS011;45919;51.420;5.454;2022-11-13T02:30:51;25.25;;;18.95;;
59028;SDS011;45919;51.420;5.454;2022-11-13T02:31:53;24.48;;;17.90;;
59028;SDS011;45919;51.420;5.454;2022-11-13T02:32:55;26.08;;;18.60;;
59028;SDS011;45919;51.420;5.454;2022-11-13T02:34:00;29.15;;;19.27;;
59028;SDS011;45919;51.420;5.454;2022-11-13T02:35:02;26.88;;;18.95;;
59028;SDS011;45919;51.420;5.454;2022-11-13T02:36:04;26.65;;;18.30;;
59028;SDS011;45919;51.420;5.454;2022-11-13T02:37:08;22.75;;;17.63;;
59028;SDS011;45919;51.420;5.454;2022-11-13T02:38:09;25.48;;;18.50;;
59028;SDS011;45919;51.420;5.454;2022-11-13T02:39:11;26.88;;;17.92;;
59028;SDS011;45919;51.420;5.454;2022-11-13T02:40:14;26.70;;;18.50;;
59028;SDS011;45919;51.420;5.454;2022-11-13T02:41:17;26.35;;;18.23;;
59028;SDS011;45919;51.420;5.454;2022-11-13T02:42:18;25.83;;;17.10;;
59028;SDS011;45919;51.420;5.454;2022-11-13T02:43:20;28.00;;;18.77;;
59028;SDS011;45919;51.420;5.454;2022-11-13T02:44:22;28.80;;;17.75;;
59028;SDS011;45919;51.420;5.454;2022-11-13T02:45:23;24.92;;;17.98;;
59028;SDS011;45919;51.420;5.454;2022-11-13T02:46:25;25.40;;;17.88;;
59028;SDS011;45919;51.420;5.454;2022-11-13T02:47:26;25.45;;;17.80;;
59028;SDS011;45919;51.420;5.454;2022-11-13T02:48:29;26.80;;;18.42;;
59028;SDS011;45919;51.420;5.454;2022-11-13T02:49:30;27.70;;;17.50;;
59028;SDS011;45919;51.420;5.454;2022-11-13T02:50:32;27.55;;;18.10;;
59028;SDS011;45919;51.420;5.454;2022-11-13T02:51:35;26.27;;;18.35;;
59028;SDS011;45919;51.420;5.454;2022-11-13T02:52:36;24.92;;;17.50;;
59028;SDS011;45919;51.420;5.454;2022-11-13T02:53:38;22.52;;;17.70;;
59028;SDS011;45919;51.420;5.454;2022-11-13T02:54:40;23.48;;;17.02;;
59028;SDS011;45919;51.420;5.454;2022-11-13T02:55:41;21.85;;;17.23;;
59028;SDS011;45919;51.420;5.454;2022-11-13T02:56:43;26.52;;;17.33;;
59028;SDS011;45919;51.420;5.454;2022-11-13T02:57:45;25.13;;;17.40;;
59028;SDS011;45919;51.420;5.454;2022-11-13T02:58:46;24.65;;;17.63;;
59028;SDS011;45919;51.420;5.454;2022-11-13T02:59:48;25.38;;;18.40;;
59028;SDS011;45919;51.420;5.454;2022-11-13T03:00:49;21.40;;;16.73;;
59028;SDS011;45919;51.420;5.454;2022-11-13T03:01:51;24.63;;;17.92;;
59028;SDS011;45919;51.420;5.454;2022-11-13T03:02:53;22.65;;;16.90;;
59028;SDS011;45919;51.420;5.454;2022-11-13T03:03:56;25.85;;;17.13;;
59028;SDS011;45919;51.420;5.454;2022-11-13T03:04:58;23.27;;;17.45;;
59028;SDS011;45919;51.420;5.454;2022-11-13T03:06:15;22.85;;;16.88;;
59028;SDS011;45919;51.420;5.454;2022-11-13T03:07:16;22.10;;;16.25;;
59028;SDS011;45919;51.420;5.454;2022-11-13T03:08:18;23.08;;;16.52;;
59028;SDS011;45919;51.420;5.454;2022-11-13T03:09:20;24.63;;;17.25;;
59028;SDS011;45919;51.420;5.454;2022-11-13T03:10:21;21.98;;;17.17;;
59028;SDS011;45919;51.420;5.454;2022-11-13T03:11:23;23.88;;;17.35;;
59028;SDS011;45919;51.420;5.454;2022-11-13T03:12:24;25.02;;;17.00;;
59028;SDS011;45919;51.420;5.454;2022-11-13T03:13:26;24.83;;;17.00;;
59028;SDS011;45919;51.420;5.454;2022-11-13T03:14:28;25.70;;;16.85;;
59028;SDS011;45919;51.420;5.454;2022-11-13T03:15:29;24.60;;;17.48;;
59028;SDS011;45919;51.420;5.454;2022-11-13T03:16:31;24.48;;;16.77;;
59028;SDS011;45919;51.420;5.454;2022-11-13T03:17:33;26.10;;;17.40;;
59028;SDS011;45919;51.420;5.454;2022-11-13T03:18:35;26.15;;;17.83;;
59028;SDS011;45919;51.420;5.454;2022-11-13T03:19:36;23.27;;;16.90;;
59028;SDS011;45919;51.420;5.454;2022-11-13T03:20:38;21.70;;;16.73;;
59028;SDS011;45919;51.420;5.454;2022-11-13T03:21:42;24.00;;;17.02;;
59028;SDS011;45919;51.420;5.454;2022-11-13T03:22:44;23.25;;;17.08;;
59028;SDS011;45919;51.420;5.454;2022-11-13T03:23:45;21.20;;;15.52;;
59028;SDS011;45919;51.420;5.454;2022-11-13T03:24:47;23.83;;;17.30;;
59028;SDS011;45919;51.420;5.454;2022-11-13T03:25:49;24.38;;;17.63;;
59028;SDS011;45919;51.420;5.454;2022-11-13T03:26:50;23.33;;;17.73;;
59028;SDS011;45919;51.420;5.454;2022-11-13T03:27:52;21.98;;;16.60;;
59028;SDS011;45919;51.420;5.454;2022-11-13T03:28:53;24.70;;;16.05;;
59028;SDS011;45919;51.420;5.454;2022-11-13T03:29:55;23.30;;;16.98;;
59028;SDS011;45919;51.420;5.454;2022-11-13T03:30:57;22.08;;;16.45;;
59028;SDS011;45919;51.420;5.454;2022-11-13T03:31:58;23.67;;;16.63;;
59028;SDS011;45919;51.420;5.454;2022-11-13T03:33:00;25.17;;;16.75;;
59028;SDS011;45919;51.420;5.454;2022-11-13T03:34:02;27.90;;;17.63;;
59028;SDS011;45919;51.420;5.454;2022-11-13T03:35:04;22.90;;;16.38;;
59028;SDS011;45919;51.420;5.454;2022-11-13T03:36:06;21.98;;;16.33;;
59028;SDS011;45919;51.420;5.454;2022-11-13T03:37:08;22.10;;;15.82;;
59028;SDS011;45919;51.420;5.454;2022-11-13T03:38:10;20.63;;;16.10;;
59028;SDS011;45919;51.420;5.454;2022-11-13T03:39:11;21.35;;;15.68;;
59028;SDS011;45919;51.420;5.454;2022-11-13T03:40:13;21.73;;;15.57;;
59028;SDS011;45919;51.420;5.454;2022-11-13T03:41:15;21.98;;;15.50;;
59028;SDS011;45919;51.420;5.454;2022-11-13T03:42:16;28.48;;;17.67;;
59028;SDS011;45919;51.420;5.454;2022-11-13T03:43:18;24.73;;;16.80;;
59028;SDS011;45919;51.420;5.454;2022-11-13T03:44:20;21.00;;;15.85;;
59028;SDS011;45919;51.420;5.454;2022-11-13T03:45:21;25.75;;;17.05;;
59028;SDS011;45919;51.420;5.454;2022-11-13T03:46:23;21.77;;;16.08;;
59028;SDS011;45919;51.420;5.454;2022-11-13T03:47:24;23.38;;;15.13;;
59028;SDS011;45919;51.420;5.454;2022-11-13T03:48:26;23.67;;;15.43;;
59028;SDS011;45919;51.420;5.454;2022-11-13T03:49:27;22.73;;;16.08;;
59028;SDS011;45919;51.420;5.454;2022-11-13T03:50:29;24.20;;;16.63;;
59028;SDS011;45919;51.420;5.454;2022-11-13T03:51:31;21.45;;;15.75;;
59028;SDS011;45919;51.420;5.454;2022-11-13T03:52:32;25.05;;;16.58;;
59028;SDS011;45919;51.420;5.454;2022-11-13T03:53:34;21.42;;;15.40;;
59028;SDS011;45919;51.420;5.454;2022-11-13T03:54:35;21.27;;;16.27;;
59028;SDS011;45919;51.420;5.454;2022-11-13T03:55:37;22.10;;;16.05;;
59028;SDS011;45919;51.420;5.454;2022-11-13T03:56:38;21.20;;;15.95;;
59028;SDS011;45919;51.420;5.454;2022-11-13T03:57:40;22.83;;;15.77;;
59028;SDS011;45919;51.420;5.454;2022-11-13T03:58:41;23.33;;;15.60;;
59028;SDS011;45919;51.420;5.454;2022-11-13T03:59:46;22.20;;;15.52;;
59028;SDS011;45919;51.420;5.454;2022-11-13T04:00:47;25.38;;;16.15;;
59028;SDS011;45919;51.420;5.454;2022-11-13T04:01:50;23.48;;;15.25;;
59028;SDS011;45919;51.420;5.454;2022-11-13T04:02:51;19.55;;;14.90;;
59028;SDS011;45919;51.420;5.454;2022-11-13T04:03:53;22.40;;;15.38;;
59028;SDS011;45919;51.420;5.454;2022-11-13T04:04:55;23.10;;;15.00;;
59028;SDS011;45919;51.420;5.454;2022-11-13T04:05:57;22.50;;;15.20;;
59028;SDS011;45919;51.420;5.454;2022-11-13T04:06:58;23.48;;;15.80;;
59028;SDS011;45919;51.420;5.454;2022-11-13T04:08:00;24.13;;;16.25;;
59028;SDS011;45919;51.420;5.454;2022-11-13T04:09:01;21.75;;;15.70;;
59028;SDS011;45919;51.420;5.454;2022-11-13T04:10:03;22.83;;;15.70;;
59028;SDS011;45919;51.420;5.454;2022-11-13T04:11:09;22.75;;;15.13;;
59028;SDS011;45919;51.420;5.454;2022-11-13T04:12:12;21.92;;;14.80;;
59028;SDS011;45919;51.420;5.454;2022-11-13T04:13:13;20.63;;;15.43;;
59028;SDS011;45919;51.420;5.454;2022-11-13T04:14:15;24.48;;;15.15;;
59028;SDS011;45919;51.420;5.454;2022-11-13T04:15:17;20.85;;;14.98;;
59028;SDS011;45919;51.420;5.454;2022-11-13T04:16:18;22.00;;;15.25;;
59028;SDS011;45919;51.420;5.454;2022-11-13T04:17:20;25.23;;;15.70;;
59028;SDS011;45919;51.420;5.454;2022-11-13T04:18:21;20.63;;;15.18;;
59028;SDS011;45919;51.420;5.454;2022-11-13T04:19:23;20.48;;;14.73;;
59028;SDS011;45919;51.420;5.454;2022-11-13T04:20:25;23.15;;;15.27;;
59028;SDS011;45919;51.420;5.454;2022-11-13T04:21:28;19.90;;;15.45;;
59028;SDS011;45919;51.420;5.454;2022-11-13T04:22:29;20.92;;;14.63;;
59028;SDS011;45919;51.420;5.454;2022-11-13T04:23:31;23.67;;;15.60;;
59028;SDS011;45919;51.420;5.454;2022-11-13T04:24:32;23.98;;;16.00;;
59028;SDS011;45919;51.420;5.454;2022-11-13T04:25:34;21.48;;;15.15;;
59028;SDS011;45919;51.420;5.454;2022-11-13T04:26:36;22.48;;;15.57;;
59028;SDS011;45919;51.420;5.454;2022-11-13T04:27:37;21.92;;;14.88;;
59028;SDS011;45919;51.420;5.454;2022-11-13T04:28:39;22.63;;;15.40;;
59028;SDS011;45919;51.420;5.454;2022-11-13T04:29:40;26.17;;;15.43;;
59028;SDS011;45919;51.420;5.454;2022-11-13T04:30:42;20.55;;;15.13;;
59028;SDS011;45919;51.420;5.454;2022-11-13T04:31:43;22.13;;;15.27;;
59028;SDS011;45919;51.420;5.454;2022-11-13T04:32:45;23.67;;;16.08;;
59028;SDS011;45919;51.420;5.454;2022-11-13T04:33:46;23.35;;;15.48;;
59028;SDS011;45919;51.420;5.454;2022-11-13T04:34:48;21.27;;;15.27;;
59028;SDS011;45919;51.420;5.454;2022-11-13T04:35:49;25.08;;;15.70;;
59028;SDS011;45919;51.420;5.454;2022-11-13T04:36:51;22.88;;;16.63;;
59028;SDS011;45919;51.420;5.454;2022-11-13T04:37:53;19.73;;;15.02;;
59028;SDS011;45919;51.420;5.454;2022-11-13T04:38:54;20.33;;;15.02;;
59028;SDS011;45919;51.420;5.454;2022-11-13T04:39:56;23.02;;;15.13;;
59028;SDS011;45919;51.420;5.454;2022-11-13T04:40:57;23.23;;;14.93;;
59028;SDS011;45919;51.420;5.454;2022-11-13T04:42:17;20.15;;;14.30;;
59028;SDS011;45919;51.420;5.454;2022-11-13T04:43:38;22.05;;;14.63;;
59028;SDS011;45919;51.420;5.454;2022-11-13T04:44:39;21.40;;;15.50;;
59028;SDS011;45919;51.420;5.454;2022-11-13T04:45:41;20.25;;;14.70;;
59028;SDS011;45919;51.420;5.454;2022-11-13T04:46:42;24.45;;;15.02;;
59028;SDS011;45919;51.420;5.454;2022-11-13T04:47:44;20.15;;;14.45;;
59028;SDS011;45919;51.420;5.454;2022-11-13T04:48:46;22.17;;;15.20;;
59028;SDS011;45919;51.420;5.454;2022-11-13T04:49:48;21.05;;;15.32;;
59028;SDS011;45919;51.420;5.454;2022-11-13T04:50:49;21.52;;;14.93;;
59028;SDS011;45919;51.420;5.454;2022-11-13T04:51:51;21.33;;;15.05;;
59028;SDS011;45919;51.420;5.454;2022-11-13T04:52:52;21.10;;;15.50;;
59028;SDS011;45919;51.420;5.454;2022-11-13T04:53:54;20.88;;;15.60;;
59028;SDS011;45919;51.420;5.454;2022-11-13T04:54:56;23.13;;;15.30;;
59028;SDS011;45919;51.420;5.454;2022-11-13T04:55:57;20.65;;;14.90;;
59028;SDS011;45919;51.420;5.454;2022-11-13T04:56:59;24.25;;;15.25;;
59028;SDS011;45919;51.420;5.454;2022-11-13T04:58:00;21.42;;;15.57;;
59028;SDS011;45919;51.420;5.454;2022-11-13T04:59:02;21.35;;;15.10;;
59028;SDS011;45919;51.420;5.454;2022-11-13T05:00:04;21.92;;;15.35;;
59028;SDS011;45919;51.420;5.454;2022-11-13T05:01:07;22.65;;;15.20;;
59028;SDS011;45919;51.420;5.454;2022-11-13T05:02:09;21.67;;;14.93;;
59028;SDS011;45919;51.420;5.454;2022-11-13T05:03:10;19.95;;;14.85;;
59028;SDS011;45919;51.420;5.454;2022-11-13T05:04:12;20.95;;;15.20;;
59028;SDS011;45919;51.420;5.454;2022-11-13T05:05:15;20.63;;;14.90;;
59028;SDS011;45919;51.420;5.454;2022-11-13T05:06:17;20.30;;;14.60;;
59028;SDS011;45919;51.420;5.454;2022-11-13T05:07:19;22.15;;;14.82;;
59028;SDS011;45919;51.420;5.454;2022-11-13T05:08:20;22.75;;;15.63;;
59028;SDS011;45919;51.420;5.454;2022-11-13T05:09:22;21.65;;;15.82;;
59028;SDS011;45919;51.420;5.454;2022-11-13T05:10:23;20.38;;;14.70;;
59028;SDS011;45919;51.420;5.454;2022-11-13T05:11:25;20.83;;;14.73;;
59028;SDS011;45919;51.420;5.454;2022-11-13T05:12:26;20.63;;;14.82;;
59028;SDS011;45919;51.420;5.454;2022-11-13T05:13:31;20.95;;;14.80;;
59028;SDS011;45919;51.420;5.454;2022-11-13T05:14:35;21.23;;;14.85;;
59028;SDS011;45919;51.420;5.454;2022-11-13T05:15:37;20.45;;;15.10;;
59028;SDS011;45919;51.420;5.454;2022-11-13T05:16:39;22.85;;;15.30;;
59028;SDS011;45919;51.420;5.454;2022-11-13T05:17:40;21.48;;;14.73;;
59028;SDS011;45919;51.420;5.454;2022-11-13T05:18:42;24.48;;;14.57;;
59028;SDS011;45919;51.420;5.454;2022-11-13T05:19:43;22.40;;;15.20;;
59028;SDS011;45919;51.420;5.454;2022-11-13T05:20:45;23.02;;;14.90;;
59028;SDS011;45919;51.420;5.454;2022-11-13T05:21:46;20.13;;;14.95;;
59028;SDS011;45919;51.420;5.454;2022-11-13T05:22:48;21.83;;;14.65;;
59028;SDS011;45919;51.420;5.454;2022-11-13T05:23:50;21.63;;;15.32;;
59028;SDS011;45919;51.420;5.454;2022-11-13T05:24:51;21.55;;;15.55;;
59028;SDS011;45919;51.420;5.454;2022-11-13T05:25:59;23.80;;;14.95;;
59028;SDS011;45919;51.420;5.454;2022-11-13T05:27:01;23.55;;;15.13;;
59028;SDS011;45919;51.420;5.454;2022-11-13T05:28:03;18.92;;;14.95;;
59028;SDS011;45919;51.420;5.454;2022-11-13T05:29:05;21.70;;;15.10;;
59028;SDS011;45919;51.420;5.454;2022-11-13T05:30:07;20.85;;;14.85;;
59028;SDS011;45919;51.420;5.454;2022-11-13T05:31:11;22.70;;;15.70;;
59028;SDS011;45919;51.420;5.454;2022-11-13T05:32:14;20.05;;;14.07;;
59028;SDS011;45919;51.420;5.454;2022-11-13T05:33:15;20.45;;;14.40;;
59028;SDS011;45919;51.420;5.454;2022-11-13T05:34:17;21.92;;;15.23;;
59028;SDS011;45919;51.420;5.454;2022-11-13T05:35:18;19.77;;;14.10;;
59028;SDS011;45919;51.420;5.454;2022-11-13T05:36:21;22.90;;;15.82;;
59028;SDS011;45919;51.420;5.454;2022-11-13T05:37:22;21.85;;;15.15;;
59028;SDS011;45919;51.420;5.454;2022-11-13T05:38:24;23.80;;;15.50;;
59028;SDS011;45919;51.420;5.454;2022-11-13T05:39:26;21.83;;;14.55;;
59028;SDS011;45919;51.420;5.454;2022-11-13T05:40:28;22.85;;;15.25;;
59028;SDS011;45919;51.420;5.454;2022-11-13T05:41:30;22.13;;;16.10;;
59028;SDS011;45919;51.420;5.454;2022-11-13T05:42:31;18.48;;;14.63;;
59028;SDS011;45919;51.420;5.454;2022-11-13T05:43:33;21.92;;;16.45;;
59028;SDS011;45919;51.420;5.454;2022-11-13T05:44:36;20.90;;;14.57;;
59028;SDS011;45919;51.420;5.454;2022-11-13T05:45:37;23.05;;;15.55;;
59028;SDS011;45919;51.420;5.454;2022-11-13T05:46:39;19.88;;;15.07;;
59028;SDS011;45919;51.420;5.454;2022-11-13T05:47:40;24.35;;;15.45;;
59028;SDS011;45919;51.420;5.454;2022-11-13T05:48:42;22.30;;;14.98;;
59028;SDS011;45919;51.420;5.454;2022-11-13T05:49:44;25.83;;;15.73;;
59028;SDS011;45919;51.420;5.454;2022-11-13T05:50:46;21.48;;;15.10;;
59028;SDS011;45919;51.420;5.454;2022-11-13T05:51:47;23.63;;;15.98;;
59028;SDS011;45919;51.420;5.454;2022-11-13T05:52:49;22.77;;;15.43;;
59028;SDS011;45919;51.420;5.454;2022-11-13T05:53:51;22.23;;;14.57;;
59028;SDS011;45919;51.420;5.454;2022-11-13T05:54:53;22.42;;;15.93;;
59028;SDS011;45919;51.420;5.454;2022-11-13T05:55:58;21.52;;;15.73;;
59028;SDS011;45919;51.420;5.454;2022-11-13T05:57:01;20.60;;;15.02;;
59028;SDS011;45919;51.420;5.454;2022-11-13T05:58:03;21.20;;;15.52;;
59028;SDS011;45919;51.420;5.454;2022-11-13T05:59:04;25.15;;;15.60;;
59028;SDS011;45919;51.420;5.454;2022-11-13T06:00:07;19.88;;;15.05;;
59028;SDS011;45919;51.420;5.454;2022-11-13T06:02:16;20.17;;;14.73;;
59028;SDS011;45919;51.420;5.454;2022-11-13T06:03:17;23.30;;;14.93;;
59028;SDS011;45919;51.420;5.454;2022-11-13T06:04:19;23.38;;;14.68;;
59028;SDS011;45919;51.420;5.454;2022-11-13T06:05:20;22.13;;;15.50;;
59028;SDS011;45919;51.420;5.454;2022-11-13T06:06:22;25.15;;;15.98;;
59028;SDS011;45919;51.420;5.454;2022-11-13T06:07:25;23.02;;;15.63;;
59028;SDS011;45919;51.420;5.454;2022-11-13T06:08:26;24.25;;;15.95;;
59028;SDS011;45919;51.420;5.454;2022-11-13T06:09:28;25.88;;;16.35;;